Time;durP1;ratioP1;P1;durP2;ratioP2;P2;SDS_P1;SDS_P2;PMS_P1;PMS_P2;Temp;Humidity;BMP_temperature;BMP_pressure;BME280_temperature;BME280_humidity;BME280_pressure;Samples;Min_cycle;Max_cycle;Signal;HPM_P1;HPM_P2
2023/03/25 00:01:57;;;;;;;2.70;0.57;;;9.10;3.20;;;;;;7372468;19;20013;-72
2023/03/25 00:04:29;;;;;;;3.45;0.65;;;9.20;2.60;;;;;;7372731;19;20017;-72
2023/03/25 00:07:00;;;;;;;2.63;0.93;;;9.10;3.20;;;;;;7372232;19;20019;-72
2023/03/25 00:09:30;;;;;;;1.33;0.40;;;9.10;3.90;;;;;;7393354;19;20463;-72
2023/03/25 00:12:00;;;;;;;0.68;0.47;;;9.10;3.40;;;;;;7374675;19;20011;-72
2023/03/25 00:14:31;;;;;;;2.53;0.80;;;9.10;4.10;;;;;;7372924;19;20011;-72
2023/03/25 00:17:01;;;;;;;2.05;0.50;;;9.00;4.20;;;;;;7372626;19;20011;-72
2023/03/25 00:19:34;;;;;;;1.15;0.60;;;9.00;6.20;;;;;;7371247;19;20471;-72
2023/03/25 00:22:04;;;;;;;4.20;1.05;;;9.00;4.40;;;;;;7372214;19;20010;-72
2023/03/25 00:24:34;;;;;;;5.25;0.60;;;9.00;4.60;;;;;;7394579;19;20013;-72
2023/03/25 00:27:04;;;;;;;3.42;0.70;;;9.00;3.40;;;;;;7373533;19;20017;-71
2023/03/25 00:29:35;;;;;;;0.80;0.50;;;9.00;2.90;;;;;;7370470;19;20088;-71
2023/03/25 00:32:05;;;;;;;3.15;0.50;;;9.10;2.80;;;;;;7373855;19;20097;-71
2023/03/25 00:34:46;;;;;;;1.00;0.40;;;9.00;1.90;;;;;;7372375;19;20010;-72
2023/03/25 00:37:20;;;;;;;2.85;0.70;;;9.00;2.60;;;;;;7373575;19;20090;-71
2023/03/25 00:39:50;;;;;;;0.93;0.50;;;9.00;3.00;;;;;;7371337;19;20502;-71
2023/03/25 00:42:24;;;;;;;1.65;0.40;;;9.00;4.10;;;;;;7394188;19;20021;-71
2023/03/25 00:44:55;;;;;;;1.85;0.32;;;9.00;4.60;;;;;;7368171;19;20585;-72
2023/03/25 00:47:25;;;;;;;2.03;0.40;;;9.00;4.80;;;;;;7373390;19;20013;-72
2023/03/25 00:49:58;;;;;;;1.95;0.43;;;8.90;5.20;;;;;;7370499;19;20018;-71
2023/03/25 00:52:28;;;;;;;1.83;0.50;;;9.00;6.00;;;;;;7373699;19;20014;-72
2023/03/25 00:54:58;;;;;;;2.47;0.57;;;8.90;5.10;;;;;;7371103;19;20014;-73
2023/03/25 00:57:27;;;;;;;1.13;0.45;;;8.80;5.70;;;;;;7394569;19;20368;-72
2023/03/25 00:59:57;;;;;;;1.05;0.43;;;8.90;5.80;;;;;;7369824;19;20019;-72
2023/03/25 01:02:27;;;;;;;1.65;0.30;;;8.90;4.10;;;;;;7371813;19;20010;-72
2023/03/25 01:05:00;;;;;;;1.77;0.50;;;8.80;4.10;;;;;;7371588;19;20010;-72
2023/03/25 01:07:30;;;;;;;2.30;0.60;;;8.80;3.70;;;;;;7371694;19;20018;-72
2023/03/25 01:10:01;;;;;;;2.10;0.60;;;8.80;3.80;;;;;;7370679;19;20478;-73
2023/03/25 01:12:31;;;;;;;1.55;0.47;;;8.70;3.70;;;;;;7393505;19;20025;-72
2023/03/25 01:15:01;;;;;;;2.05;0.50;;;8.60;3.90;;;;;;7370382;19;20019;-72
2023/03/25 01:17:30;;;;;;;1.45;0.50;;;8.60;2.90;;;;;;7371322;19;20018;-73
2023/03/25 01:20:04;;;;;;;2.75;0.60;;;8.70;2.90;;;;;;7369581;19;20010;-72
2023/03/25 01:22:34;;;;;;;3.10;0.80;;;8.60;3.20;;;;;;7370280;19;20017;-73
2023/03/25 01:25:05;;;;;;;2.58;0.60;;;8.60;3.30;;;;;;7370996;19;20022;-73
2023/03/25 01:27:35;;;;;;;2.47;0.65;;;8.60;2.70;;;;;;7384958;19;20010;-70
2023/03/25 01:30:06;;;;;;;1.23;0.57;;;8.50;2.90;;;;;;7391121;19;20493;-71
2023/03/25 01:32:36;;;;;;;1.42;0.50;;;8.50;3.30;;;;;;7370964;19;20014;-71
2023/03/25 01:35:11;;;;;;;2.15;0.63;;;8.50;3.70;;;;;;7369547;19;20010;-72
2023/03/25 01:37:43;;;;;;;2.53;0.57;;;8.40;3.80;;;;;;7370168;19;20020;-71
2023/03/25 01:40:20;;;;;;;0.90;0.40;;;8.40;3.60;;;;;;7366323;19;20014;-71
2023/03/25 01:42:50;;;;;;;2.83;0.68;;;8.40;3.80;;;;;;7368681;19;20018;-71
2023/03/25 01:45:26;;;;;;;2.33;0.68;;;8.40;4.60;;;;;;7390455;19;20485;-72
2023/03/25 01:48:05;;;;;;;2.42;0.82;;;8.40;3.80;;;;;;7370235;19;20018;-72
2023/03/25 01:50:40;;;;;;;1.98;0.95;;;8.50;4.00;;;;;;7367466;19;20380;-72
2023/03/25 01:53:11;;;;;;;2.90;0.90;;;8.40;3.30;;;;;;7370992;19;20059;-73
2023/03/25 01:55:43;;;;;;;3.42;0.95;;;8.40;3.80;;;;;;7368123;19;20090;-71
2023/03/25 01:58:17;;;;;;;1.75;0.65;;;8.40;3.00;;;;;;7370399;19;20003;-72
2023/03/25 02:00:49;;;;;;;2.35;0.65;;;8.40;3.40;;;;;;7368084;19;20006;-71
2023/03/25 02:03:22;;;;;;;1.95;0.80;;;8.40;2.60;;;;;;7391290;19;20086;-72
2023/03/25 02:06:01;;;;;;;3.05;0.70;;;8.40;2.50;;;;;;7368960;19;20042;-71
2023/03/25 02:08:33;;;;;;;3.97;0.63;;;8.40;1.00;;;;;;7368784;19;20519;-72
2023/03/25 02:11:03;;;;;;;2.08;0.70;;;8.40;1.00;;;;;;7368577;19;20010;-72
2023/03/25 02:13:34;;;;;;;3.45;0.80;;;8.50;1.00;;;;;;7368390;19;20010;-72
2023/03/25 02:16:20;;;;;;;1.02;0.50;;;8.50;1.00;;;;;;7368848;19;20021;-72
2023/03/25 02:19:03;;;;;;;3.58;0.60;;;8.50;1.00;;;;;;7368995;19;20045;-72
2023/03/25 02:22:10;;;;;;;2.80;1.05;;;8.40;1.00;;;;;;7390216;19;20010;-72
2023/03/25 02:25:03;;;;;;;1.65;0.70;;;8.50;1.00;;;;;;7265359;19;2004471;-72
2023/03/25 02:27:44;;;;;;;4.28;0.93;;;8.50;1.00;;;;;;7391440;19;20014;-72
2023/03/25 02:30:37;;;;;;;3.20;0.65;;;8.60;1.00;;;;;;7367597;19;20021;-72
2023/03/25 02:33:31;;;;;;;4.93;0.77;;;8.60;1.00;;;;;;7369677;19;20017;-72
2023/03/25 02:36:32;;;;;;;3.20;0.60;;;8.60;1.00;;;;;;7367395;19;20035;-71
2023/03/25 02:39:10;;;;;;;4.65;1.00;;;8.50;4.80;;;;;;7368536;19;20024;-71
2023/03/25 02:41:45;;;;;;;3.97;0.80;;;7.90;10.40;;;;;;7367911;19;20011;-72
2023/03/25 02:44:20;;;;;;;1.55;0.50;;;7.30;17.60;;;;;;7368454;19;20014;-72
2023/03/25 02:46:52;;;;;;;;;;;7.10;15.20;;;;;;7368537;19;20025;-72
2023/03/25 02:49:28;;;;;;;2.08;0.73;;;6.90;16.10;;;;;;7365898;19;19910;-72
2023/03/25 02:52:02;;;;;;;1.50;0.25;;;6.80;20.60;;;;;;7367725;19;20014;-72
2023/03/25 02:54:38;;;;;;;1.27;0.40;;;6.70;20.30;;;;;;7388012;19;20018;-72
2023/03/25 02:57:09;;;;;;;1.70;0.45;;;6.60;20.60;;;;;;7367996;19;20060;-73
2023/03/25 02:59:41;;;;;;;1.73;0.40;;;6.60;20.60;;;;;;7366305;19;20085;-72
2023/03/25 03:02:12;;;;;;;2.85;0.60;;;6.50;19.30;;;;;;7368154;19;19999;-72
2023/03/25 03:04:47;;;;;;;0.52;0.20;;;6.50;19.30;;;;;;7366403;19;20014;-72
2023/03/25 03:07:23;;;;;;;0.85;0.40;;;6.50;18.20;;;;;;7368332;19;20006;-73
2023/03/25 03:10:04;;;;;;;0.95;0.38;;;6.50;17.90;;;;;;7366776;19;20078;-73
2023/03/25 03:12:49;;;;;;;1.30;0.47;;;6.60;20.70;;;;;;7388915;19;20014;-73
2023/03/25 03:15:29;;;;;;;0.60;0.30;;;6.60;20.60;;;;;;7365437;19;20463;-73
2023/03/25 03:18:11;;;;;;;0.98;0.43;;;6.60;20.60;;;;;;7367436;19;20082;-73
2023/03/25 03:20:48;;;;;;;0.73;0.30;;;6.60;19.50;;;;;;7365237;19;20010;-73
2023/03/25 03:23:27;;;;;;;0.88;0.30;;;6.50;19.70;;;;;;7366081;19;20007;-73
2023/03/25 03:26:06;;;;;;;0.55;0.20;;;6.50;20.50;;;;;;7367084;19;20106;-73
2023/03/25 03:28:41;;;;;;;1.30;0.35;;;6.40;19.30;;;;;;7367315;19;20389;-73
2023/03/25 03:31:14;;;;;;;;;;;6.50;21.40;;;;;;7368029;19;20034;-73
2023/03/25 03:34:09;;;;;;;1.58;0.55;;;6.40;21.40;;;;;;7366173;19;19982;-73
2023/03/25 03:36:45;;;;;;;1.27;0.40;;;6.40;22.60;;;;;;7365737;19;20011;-73
2023/03/25 03:39:21;;;;;;;2.78;0.50;;;6.40;23.90;;;;;;7388186;19;20022;-73
2023/03/25 03:41:58;;;;;;;0.50;0.40;;;6.40;23.60;;;;;;7367545;19;20010;-74
2023/03/25 03:44:33;;;;;;;2.10;0.70;;;6.50;23.50;;;;;;7364681;19;20010;-74
2023/03/25 03:47:06;;;;;;;;;;;6.50;24.00;;;;;;7367551;19;20505;-74
2023/03/25 03:49:40;;;;;;;3.28;0.70;;;6.50;25.00;;;;;;7364643;19;19907;-74
2023/03/25 03:52:13;;;;;;;4.53;0.60;;;6.50;24.10;;;;;;7367331;19;20026;-74
2023/03/25 03:54:47;;;;;;;3.38;1.00;;;6.50;24.80;;;;;;7364771;19;20018;-74
2023/03/25 03:57:25;;;;;;;4.72;0.77;;;6.50;25.20;;;;;;7388915;19;20021;-73
2023/03/25 04:00:02;;;;;;;2.08;0.45;;;6.60;25.30;;;;;;7364571;19;20018;-73
2023/03/25 04:02:38;;;;;;;1.40;0.60;;;6.50;25.20;;;;;;7366527;19;20090;-73
2023/03/25 04:05:10;;;;;;;3.28;0.50;;;6.60;25.60;;;;;;7372631;19;20022;-73
2023/03/25 04:07:44;;;;;;;2.08;0.63;;;6.60;25.40;;;;;;7364907;19;20022;-73
2023/03/25 04:10:17;;;;;;;3.15;0.60;;;6.60;25.60;;;;;;7372186;19;20023;-73
2023/03/25 04:12:53;;;;;;;0.97;0.50;;;6.60;26.70;;;;;;7373144;19;20493;-73
2023/03/25 04:15:24;;;;;;;7.90;0.90;;;6.70;26.60;;;;;;7392937;19;20483;-73
2023/03/25 04:17:54;;;;;;;2.05;0.60;;;6.60;25.90;;;;;;7373142;19;20035;-73
2023/03/25 04:20:28;;;;;;;1.17;0.60;;;6.70;25.70;;;;;;7369952;19;20031;-73
2023/03/25 04:22:58;;;;;;;3.60;0.60;;;6.80;25.40;;;;;;7372995;19;20030;-73
2023/03/25 04:25:31;;;;;;;3.47;0.65;;;6.90;24.80;;;;;;7370926;19;20073;-73
2023/03/25 04:28:03;;;;;;;3.22;0.80;;;6.90;23.70;;;;;;7371883;19;20031;-73
2023/03/25 04:30:33;;;;;;;2.83;0.60;;;6.90;24.20;;;;;;7392511;19;20035;-74
2023/03/25 04:33:03;;;;;;;2.53;0.50;;;6.80;23.30;;;;;;7373115;19;20069;-74
2023/03/25 04:35:34;;;;;;;1.17;0.70;;;6.80;23.60;;;;;;7371454;19;20018;-73
2023/03/25 04:38:04;;;;;;;4.63;0.60;;;6.80;21.80;;;;;;7372821;19;20483;-71
2023/03/25 04:40:34;;;;;;;2.13;0.40;;;6.80;20.80;;;;;;7370932;19;19999;-73
2023/03/25 04:43:06;;;;;;;3.38;0.77;;;6.70;20.70;;;;;;7372743;19;20497;-72
2023/03/25 04:45:37;;;;;;;3.10;0.60;;;6.60;21.90;;;;;;7374449;19;20006;-72
2023/03/25 04:48:13;;;;;;;1.58;0.50;;;6.60;22.70;;;;;;7394687;19;20010;-72
2023/03/25 04:50:43;;;;;;;1.92;0.57;;;6.50;21.80;;;;;;7369795;19;20010;-72
2023/03/25 04:53:13;;;;;;;2.58;0.65;;;6.50;21.50;;;;;;7372848;19;20006;-73
2023/03/25 04:55:46;;;;;;;5.10;0.50;;;6.50;22.40;;;;;;7370608;19;20018;-73
2023/03/25 04:58:20;;;;;;;1.35;0.50;;;6.40;22.20;;;;;;7372091;19;20034;-72
2023/03/25 05:00:53;;;;;;;3.75;0.55;;;6.40;22.20;;;;;;7369957;19;20010;-72
2023/03/25 05:03:24;;;;;;;1.05;0.50;;;6.30;22.30;;;;;;7391637;19;20010;-74
2023/03/25 05:05:55;;;;;;;2.05;0.63;;;6.30;22.60;;;;;;7371210;19;20018;-74
2023/03/25 05:08:25;;;;;;;2.85;0.50;;;6.30;22.30;;;;;;7370564;19;20114;-74
2023/03/25 05:10:55;;;;;;;1.70;0.40;;;6.40;22.90;;;;;;7370811;19;20478;-73
2023/03/25 05:13:27;;;;;;;4.78;0.50;;;6.40;22.70;;;;;;7372020;19;20010;-73
2023/03/25 05:15:57;;;;;;;1.70;0.40;;;6.50;22.70;;;;;;7370396;19;20042;-74
2023/03/25 05:18:27;;;;;;;1.27;0.50;;;6.50;20.60;;;;;;7393567;19;20014;-74
2023/03/25 05:20:59;;;;;;;0.88;0.50;;;6.50;21.10;;;;;;7368838;19;20039;-74
2023/03/25 05:23:30;;;;;;;3.92;0.70;;;6.60;21.60;;;;;;7369959;19;20007;-73
2023/03/25 05:26:00;;;;;;;3.63;0.65;;;6.60;20.30;;;;;;7369679;19;20011;-74
2023/03/25 05:28:32;;;;;;;3.28;0.70;;;6.70;18.30;;;;;;7370773;19;20077;-74
2023/03/25 05:31:07;;;;;;;5.03;0.80;;;6.80;17.30;;;;;;7369661;19;20014;-74
2023/03/25 05:33:41;;;;;;;2.50;0.60;;;6.80;17.30;;;;;;7370817;19;20577;-73
2023/03/25 05:36:12;;;;;;;2.00;0.80;;;6.90;13.80;;;;;;7391903;19;20024;-73
2023/03/25 05:38:43;;;;;;;3.13;0.70;;;7.10;11.30;;;;;;7370050;19;20017;-74
2023/03/25 05:41:15;;;;;;;2.92;0.77;;;7.20;7.30;;;;;;7370454;19;20014;-73
2023/03/25 05:43:49;;;;;;;4.20;1.10;;;7.20;8.20;;;;;;7369138;19;20039;-73
2023/03/25 05:46:20;;;;;;;2.42;0.60;;;7.30;7.60;;;;;;7369465;19;20007;-73
2023/03/25 05:48:50;;;;;;;5.90;1.00;;;7.30;6.80;;;;;;7370006;19;20025;-74
2023/03/25 05:51:21;;;;;;;1.88;0.65;;;7.30;5.70;;;;;;7390645;19;20374;-73
2023/03/25 05:53:52;;;;;;;2.75;0.90;;;7.40;5.90;;;;;;7369855;19;20025;-73
2023/03/25 05:56:24;;;;;;;5.00;0.98;;;7.40;5.00;;;;;;7368278;19;20029;-73
2023/03/25 05:58:57;;;;;;;3.33;0.70;;;7.40;6.80;;;;;;7369577;19;20762;-73
2023/03/25 06:01:28;;;;;;;4.45;0.98;;;7.40;5.50;;;;;;7369102;19;20043;-73
2023/03/25 06:04:03;;;;;;;2.45;1.00;;;7.50;6.20;;;;;;7369835;19;20018;-72
2023/03/25 06:06:34;;;;;;;5.85;0.90;;;7.50;5.50;;;;;;7391836;19;20026;-72
2023/03/25 06:09:05;;;;;;;6.80;1.60;;;7.60;5.20;;;;;;7369983;19;20013;-72
2023/03/25 06:11:45;;;;;;;5.22;0.98;;;7.60;6.40;;;;;;7369617;19;20002;-73
2023/03/25 06:14:17;;;;;;;5.32;1.20;;;7.60;3.70;;;;;;7368547;19;20014;-72
2023/03/25 06:16:48;;;;;;;1.48;0.88;;;7.70;4.80;;;;;;7370068;19;20023;-72
2023/03/25 06:19:18;;;;;;;4.22;1.13;;;7.80;2.90;;;;;;7367817;19;20081;-72
2023/03/25 06:21:50;;;;;;;4.10;1.00;;;7.80;4.00;;;;;;7368742;19;20016;-72
2023/03/25 06:24:20;;;;;;;4.20;1.38;;;7.90;2.10;;;;;;7387602;19;20021;-72
2023/03/25 06:26:50;;;;;;;2.28;0.70;;;7.90;1.60;;;;;;7368429;19;20006;-72
2023/03/25 06:29:22;;;;;;;4.03;0.90;;;7.90;1.00;;;;;;7366411;19;20466;-72
2023/03/25 06:31:52;;;;;;;2.60;1.00;;;8.00;1.00;;;;;;7369088;19;20078;-73
2023/03/25 06:34:22;;;;;;;3.72;0.75;;;8.00;1.00;;;;;;7366139;19;20019;-73
2023/03/25 06:36:52;;;;;;;5.10;0.90;;;8.00;1.00;;;;;;7369608;19;20383;-73
2023/03/25 06:39:23;;;;;;;6.03;0.95;;;8.10;1.00;;;;;;7388498;19;20015;-73
2023/03/25 06:41:53;;;;;;;3.97;1.00;;;8.20;1.00;;;;;;7368810;19;20018;-72
2023/03/25 06:44:25;;;;;;;4.70;0.93;;;8.30;1.00;;;;;;7365227;19;20007;-72
2023/03/25 06:46:56;;;;;;;6.22;1.05;;;8.30;1.00;;;;;;7368452;19;20080;-72
2023/03/25 06:49:26;;;;;;;5.80;1.10;;;8.30;1.00;;;;;;7367490;19;20031;-72
2023/03/25 06:51:56;;;;;;;2.95;0.93;;;8.50;1.00;;;;;;7369184;19;20031;-72
2023/03/25 06:54:26;;;;;;;5.60;1.20;;;8.70;1.00;;;;;;7387346;19;20022;-73
2023/03/25 06:56:56;;;;;;;5.57;1.50;;;8.60;1.00;;;;;;7367900;19;20010;-73
2023/03/25 06:59:28;;;;;;;5.32;1.00;;;8.70;1.00;;;;;;7366000;19;20018;-73
2023/03/25 07:01:58;;;;;;;3.92;1.23;;;8.80;1.00;;;;;;7368201;19;20002;-73
2023/03/25 07:04:28;;;;;;;4.15;1.23;;;9.00;1.00;;;;;;7365789;19;20021;-73
2023/03/25 07:06:58;;;;;;;4.00;1.00;;;9.10;1.00;;;;;;7367854;19;20098;-72
2023/03/25 07:09:27;;;;;;;4.43;1.10;;;9.50;1.00;;;;;;7386522;19;20470;-74
2023/03/25 07:11:57;;;;;;;7.43;1.27;;;9.50;1.00;;;;;;7367627;19;20039;-74
2023/03/25 07:14:30;;;;;;;5.05;0.80;;;9.70;1.00;;;;;;7365180;19;20082;-72
2023/03/25 07:17:00;;;;;;;1.98;0.80;;;9.90;1.00;;;;;;7366556;19;20015;-74
2023/03/25 07:19:30;;;;;;;4.05;0.98;;;9.90;1.00;;;;;;7364512;19;20074;-73
2023/03/25 07:21:59;;;;;;;2.28;0.65;;;9.80;1.00;;;;;;7367569;19;20490;-72
2023/03/25 07:24:29;;;;;;;2.67;0.68;;;9.70;1.00;;;;;;7387165;19;20247;-72
2023/03/25 07:26:59;;;;;;;2.47;0.75;;;9.60;1.00;;;;;;7367661;19;20022;-73
2023/03/25 07:29:32;;;;;;;3.47;0.90;;;9.50;1.00;;;;;;7364862;19;20010;-73
2023/03/25 07:32:02;;;;;;;1.08;0.60;;;9.40;1.00;;;;;;7367251;19;20384;-72
2023/03/25 07:34:32;;;;;;;1.48;0.57;;;9.40;1.00;;;;;;7364989;19;20011;-72
2023/03/25 07:37:02;;;;;;;1.33;0.55;;;9.60;1.00;;;;;;7368638;19;20428;-73
2023/03/25 07:39:32;;;;;;;5.68;1.20;;;9.80;1.00;;;;;;7393408;19;20018;-72
2023/03/25 07:42:02;;;;;;;1.75;0.80;;;10.00;1.00;;;;;;7374982;19;20034;-72
2023/03/25 07:44:35;;;;;;;2.90;0.95;;;9.90;1.00;;;;;;7371717;19;20027;-72
2023/03/25 07:47:05;;;;;;;9.23;1.02;;;9.90;1.00;;;;;;7373672;19;20007;-72
2023/03/25 07:49:35;;;;;;;4.50;1.13;;;9.90;1.00;;;;;;7371793;19;20014;-72
2023/03/25 07:52:05;;;;;;;2.65;0.77;;;10.00;1.00;;;;;;7374221;19;20014;-72
2023/03/25 07:54:35;;;;;;;3.22;0.80;;;10.10;1.00;;;;;;7394345;19;20014;-72
2023/03/25 07:57:05;;;;;;;2.22;0.57;;;10.10;1.00;;;;;;7373760;19;20047;-73
2023/03/25 07:59:38;;;;;;;3.50;0.80;;;10.10;1.00;;;;;;7371266;19;20042;-73
2023/03/25 08:02:08;;;;;;;2.72;0.70;;;10.10;1.00;;;;;;7374040;19;20014;-73
2023/03/25 08:04:38;;;;;;;12.07;0.70;;;10.20;1.00;;;;;;7370903;19;20021;-73
2023/03/25 08:07:08;;;;;;;4.25;1.13;;;10.10;1.00;;;;;;7372147;19;20011;-73
2023/03/25 08:09:38;;;;;;;2.75;0.93;;;10.10;1.00;;;;;;7371110;19;20018;-72
2023/03/25 08:12:09;;;;;;;3.30;0.60;;;10.00;1.00;;;;;;7394943;19;20014;-73
2023/03/25 08:14:42;;;;;;;2.40;0.60;;;10.10;1.00;;;;;;7368431;19;20006;-73
2023/03/25 08:17:12;;;;;;;2.97;0.63;;;10.20;1.00;;;;;;7373292;19;20011;-73
2023/03/25 08:19:41;;;;;;;5.30;1.05;;;10.30;1.00;;;;;;7370747;19;20018;-73
2023/03/25 08:22:11;;;;;;;2.95;1.00;;;10.40;1.00;;;;;;7372678;19;20010;-73
2023/03/25 08:24:41;;;;;;;4.65;0.90;;;10.60;1.00;;;;;;7371583;19;20023;-73
2023/03/25 08:27:11;;;;;;;2.22;0.80;;;10.70;1.00;;;;;;7392518;19;20014;-76
2023/03/25 08:29:56;;;;;;;5.00;0.70;;;10.90;1.00;;;;;;7370580;19;20021;-73
2023/03/25 08:32:26;;;;;;;3.33;0.80;;;11.20;1.00;;;;;;7371817;19;20050;-74
2023/03/25 08:34:56;;;;;;;2.58;1.05;;;11.20;1.00;;;;;;7370966;19;20466;-74
2023/03/25 08:37:26;;;;;;;5.95;1.08;;;11.10;1.00;;;;;;7371146;19;20015;-74
2023/03/25 08:39:56;;;;;;;2.97;0.90;;;11.20;1.00;;;;;;7371114;19;20007;-72
2023/03/25 08:42:26;;;;;;;4.90;0.85;;;11.70;1.00;;;;;;7393055;19;20010;-73
2023/03/25 08:44:59;;;;;;;5.30;0.85;;;11.50;1.00;;;;;;7370330;19;20010;-73
2023/03/25 08:47:29;;;;;;;3.22;0.70;;;11.30;1.00;;;;;;7372038;19;20383;-75
2023/03/25 08:49:59;;;;;;;1.70;0.77;;;11.10;1.00;;;;;;7368632;19;20015;-73
2023/03/25 08:52:29;;;;;;;2.53;0.70;;;11.20;1.00;;;;;;7372658;19;20031;-74
2023/03/25 08:54:59;;;;;;;1.92;0.73;;;10.90;1.00;;;;;;7370106;19;20813;-74
2023/03/25 08:57:29;;;;;;;1.92;0.57;;;10.60;1.00;;;;;;7393425;19;20014;-72
2023/03/25 09:00:02;;;;;;;2.50;0.80;;;10.20;1.00;;;;;;7369761;19;20011;-74
2023/03/25 09:02:32;;;;;;;4.43;0.77;;;10.10;1.00;;;;;;7371448;19;20010;-73
2023/03/25 09:05:03;;;;;;;2.25;0.50;;;9.80;1.00;;;;;;7369808;19;20018;-74
2023/03/25 09:07:33;;;;;;;2.05;0.75;;;9.60;1.00;;;;;;7369030;19;20003;-72
2023/03/25 09:10:03;;;;;;;3.28;0.68;;;9.50;1.00;;;;;;7368957;19;20039;-73
2023/03/25 09:12:33;;;;;;;1.27;0.32;;;9.60;1.00;;;;;;7392666;19;20117;-72
2023/03/25 09:15:06;;;;;;;0.80;0.20;;;9.50;1.00;;;;;;7369753;19;20014;-73
2023/03/25 09:17:36;;;;;;;1.60;0.30;;;9.50;1.00;;;;;;7370209;19;20474;-73
2023/03/25 09:20:07;;;;;;;0.68;0.30;;;9.90;1.00;;;;;;7368620;19;20488;-72
2023/03/25 09:22:40;;;;;;;1.20;0.30;;;10.20;1.00;;;;;;7370795;19;20013;-73
2023/03/25 09:25:11;;;;;;;1.27;0.20;;;10.30;1.00;;;;;;7370233;19;20470;-73
2023/03/25 09:27:41;;;;;;;1.48;0.50;;;10.30;1.00;;;;;;7369352;19;20007;-72
2023/03/25 09:30:14;;;;;;;0.35;0.20;;;10.30;1.00;;;;;;7390770;19;20030;-72
2023/03/25 09:32:44;;;;;;;1.23;0.47;;;10.40;1.00;;;;;;7370151;19;20470;-72
2023/03/25 09:35:14;;;;;;;1.75;0.38;;;10.30;1.00;;;;;;7369059;19;20006;-73
2023/03/25 09:37:45;;;;;;;0.43;0.30;;;10.40;1.00;;;;;;7369827;19;20010;-73
2023/03/25 09:40:22;;;;;;;0.75;0.52;;;10.40;1.00;;;;;;7369188;19;20006;-73
2023/03/25 09:43:11;;;;;;;0.85;0.30;;;10.60;1.00;;;;;;7370077;19;20015;-72
2023/03/25 09:45:46;;;;;;;0.85;0.45;;;10.90;1.00;;;;;;7368442;19;20035;-72
2023/03/25 09:48:26;;;;;;;0.60;0.40;;;10.80;1.00;;;;;;7391602;19;20344;-73
2023/03/25 09:50:56;;;;;;;0.15;0.10;;;10.90;1.00;;;;;;7367524;19;20022;-73
2023/03/25 09:53:30;;;;;;;1.27;0.30;;;10.80;1.00;;;;;;7368258;19;20018;-72
2023/03/25 09:56:02;;;;;;;1.10;0.35;;;10.70;1.00;;;;;;7368713;19;20015;-73
2023/03/25 09:58:41;;;;;;;0.68;0.35;;;10.50;1.00;;;;;;7368149;19;20451;-72
2023/03/25 10:01:25;;;;;;;0.85;0.57;;;10.90;1.00;;;;;;7367664;19;20017;-73
2023/03/25 10:04:09;;;;;;;1.73;0.22;;;10.80;1.00;;;;;;7368474;19;20026;-72
2023/03/25 10:06:44;;;;;;;1.02;0.68;;;10.70;1.00;;;;;;7368286;19;20096;-73
2023/03/25 10:09:36;;;;;;;1.15;0.40;;;11.00;1.00;;;;;;7390062;19;20014;-72
2023/03/25 10:12:14;;;;;;;1.02;0.47;;;11.00;1.00;;;;;;7370147;19;20010;-73
2023/03/25 10:14:58;;;;;;;1.05;0.50;;;11.20;1.00;;;;;;7367343;19;20014;-73
2023/03/25 10:17:40;;;;;;;0.60;0.38;;;11.10;1.00;;;;;;7368240;19;20078;-73
2023/03/25 10:20:17;;;;;;;1.05;0.30;;;10.80;1.00;;;;;;7367074;19;20006;-72
2023/03/25 10:23:03;;;;;;;0.85;0.32;;;10.60;1.00;;;;;;7369325;19;20022;-72
2023/03/25 10:25:37;;;;;;;0.90;0.40;;;10.50;1.00;;;;;;7366111;19;20030;-71
2023/03/25 10:28:08;;;;;;;1.67;0.35;;;10.30;1.00;;;;;;7368430;19;20018;-72
2023/03/25 10:30:43;;;;;;;2.20;0.50;;;10.00;1.00;;;;;;7367464;19;20010;-71
2023/03/25 10:33:22;;;;;;;3.85;1.40;;;9.90;1.00;;;;;;7391098;19;20017;-72
2023/03/25 10:35:52;;;;;;;3.97;2.00;;;9.80;1.00;;;;;;7368251;19;20011;-72
2023/03/25 10:38:25;;;;;;;2.80;1.67;;;9.50;1.00;;;;;;7367434;19;19999;-72
2023/03/25 10:41:06;;;;;;;1.27;0.70;;;9.50;1.00;;;;;;7367014;19;20021;-72
2023/03/25 10:43:41;;;;;;;4.05;1.65;;;9.20;1.00;;;;;;7365713;19;20006;-72
2023/03/25 10:46:19;;;;;;;2.08;1.10;;;9.40;5.80;;;;;;7368536;19;20496;-72
2023/03/25 10:48:52;;;;;;;3.20;1.08;;;9.20;7.00;;;;;;7367351;19;20046;-71
2023/03/25 10:51:25;;;;;;;5.20;3.33;;;9.10;12.20;;;;;;7388517;19;20516;-71
2023/03/25 10:53:56;;;;;;;3.72;1.48;;;9.00;15.10;;;;;;7366018;19;20349;-72
2023/03/25 10:56:28;;;;;;;2.03;1.30;;;9.30;17.90;;;;;;7366472;19;20562;-71
2023/03/25 10:59:01;;;;;;;4.30;1.45;;;9.60;16.50;;;;;;7366579;19;20043;-71
2023/03/25 11:01:38;;;;;;;3.08;0.60;;;9.50;17.80;;;;;;7365630;19;20384;-71
2023/03/25 11:04:15;;;;;;;2.28;0.68;;;9.50;15.40;;;;;;7365117;19;20034;-70
2023/03/25 11:06:48;;;;;;;1.63;0.65;;;9.80;18.10;;;;;;7366636;19;20011;-71
2023/03/25 11:09:24;;;;;;;1.35;0.70;;;9.80;15.10;;;;;;7389078;19;20016;-71
2023/03/25 11:11:55;;;;;;;3.28;1.30;;;10.10;15.10;;;;;;7369549;19;20028;-72
2023/03/25 11:14:26;;;;;;;2.63;0.93;;;10.00;8.10;;;;;;7372309;19;20006;-71
2023/03/25 11:16:59;;;;;;;4.90;0.70;;;10.50;9.20;;;;;;7374090;19;20044;-71
2023/03/25 11:19:38;;;;;;;3.78;0.77;;;10.50;2.70;;;;;;7371725;19;20078;-71
2023/03/25 11:22:12;;;;;;;2.08;0.60;;;10.90;1.00;;;;;;7374640;19;20006;-70
2023/03/25 11:24:45;;;;;;;1.35;0.40;;;11.30;1.00;;;;;;7372835;19;20013;-72
2023/03/25 11:27:21;;;;;;;2.85;0.60;;;11.50;1.00;;;;;;7396454;19;20022;-71
2023/03/25 11:29:54;;;;;;;6.53;1.63;;;11.40;1.00;;;;;;7370372;19;20094;-71
2023/03/25 11:32:26;;;;;;;1.02;0.30;;;11.80;1.00;;;;;;7373919;19;20006;-71
2023/03/25 11:35:02;;;;;;;1.83;0.40;;;11.90;1.00;;;;;;7372690;19;20014;-73
2023/03/25 11:37:34;;;;;;;2.20;0.50;;;12.20;1.00;;;;;;7373473;19;20014;-72
2023/03/25 11:40:15;;;;;;;4.13;0.70;;;12.20;1.00;;;;;;7371273;19;20089;-72
2023/03/25 11:42:49;;;;;;;2.55;0.70;;;12.30;1.00;;;;;;7374044;19;20015;-72
2023/03/25 11:45:24;;;;;;;3.38;0.52;;;12.40;1.00;;;;;;7395226;19;20013;-73
2023/03/25 11:47:56;;;;;;;1.05;0.38;;;12.50;1.00;;;;;;7373097;19;20006;-73
2023/03/25 11:50:31;;;;;;;2.65;0.60;;;12.50;1.00;;;;;;7370480;19;20015;-72
2023/03/25 11:53:03;;;;;;;2.40;0.73;;;12.70;1.00;;;;;;7374189;19;20075;-72
2023/03/25 11:55:39;;;;;;;3.83;0.82;;;12.40;1.00;;;;;;7371959;19;20039;-72
2023/03/25 11:58:15;;;;;;;2.20;0.57;;;12.30;1.00;;;;;;7373194;19;20014;-72
2023/03/25 12:00:49;;;;;;;1.63;0.75;;;12.20;1.00;;;;;;7370725;19;20010;-72
2023/03/25 12:03:21;;;;;;;;;;;12.40;1.00;;;;;;7396828;19;20455;-73
2023/03/25 12:06:08;;;;;;;2.13;0.52;;;12.40;1.00;;;;;;7372421;19;19915;-72
2023/03/25 12:08:45;;;;;;;3.75;0.60;;;12.30;1.00;;;;;;7370731;19;20560;-71
2023/03/25 12:11:20;;;;;;;3.05;0.55;;;12.40;1.00;;;;;;7372505;19;20006;-74
2023/03/25 12:14:20;;;;;;;1.08;0.40;;;12.40;1.00;;;;;;7370424;19;20125;-73
2023/03/25 12:16:57;;;;;;;2.33;0.50;;;12.50;1.00;;;;;;7373681;19;20463;-72
2023/03/25 12:19:35;;;;;;;1.98;0.65;;;12.60;1.00;;;;;;7370133;19;20528;-73
2023/03/25 12:22:21;;;;;;;1.95;0.50;;;12.60;1.00;;;;;;7372720;19;20015;-73
2023/03/25 12:25:04;;;;;;;1.33;0.20;;;12.50;1.00;;;;;;7369485;19;20015;-72
2023/03/25 12:27:45;;;;;;;1.90;0.43;;;12.80;1.00;;;;;;7393636;19;20025;-74
2023/03/25 12:30:28;;;;;;;2.00;0.60;;;12.70;1.00;;;;;;7370310;19;20079;-73
2023/03/25 12:33:08;;;;;;;1.40;0.47;;;12.80;1.00;;;;;;7372905;19;20011;-73
2023/03/25 12:35:43;;;;;;;1.35;0.60;;;12.80;1.00;;;;;;7369614;19;20083;-72
2023/03/25 12:38:32;;;;;;;1.38;0.50;;;12.50;1.00;;;;;;7372680;19;20048;-72
2023/03/25 12:41:17;;;;;;;1.40;0.50;;;12.50;1.00;;;;;;7370402;19;20014;-73
2023/03/25 12:44:03;;;;;;;4.18;0.98;;;12.00;1.00;;;;;;7370434;19;20017;-72
2023/03/25 12:47:10;;;;;;;2.00;0.60;;;11.40;1.00;;;;;;7371648;19;20561;-73
2023/03/25 12:50:05;;;;;;;1.17;0.30;;;10.80;1.00;;;;;;7368599;19;20014;-73
2023/03/25 12:52:44;;;;;;;2.30;0.35;;;11.00;1.00;;;;;;7373109;19;20661;-73
2023/03/25 12:55:41;;;;;;;1.27;0.40;;;11.10;1.00;;;;;;7368940;19;20478;-74
2023/03/25 12:58:36;;;;;;;0.70;0.40;;;11.50;1.00;;;;;;7371796;19;20411;-74
2023/03/25 13:01:13;;;;;;;1.95;0.40;;;11.70;1.00;;;;;;7372246;19;20007;-72
2023/03/25 13:04:04;;;;;;;0.75;0.40;;;11.90;1.00;;;;;;7369600;19;20022;-72
2023/03/25 13:06:40;;;;;;;1.00;0.40;;;11.80;1.00;;;;;;7394244;19;20014;-73
2023/03/25 13:09:15;;;;;;;1.33;0.73;;;12.00;1.00;;;;;;7369873;19;20006;-73
2023/03/25 13:11:52;;;;;;;2.85;0.50;;;12.00;1.00;;;;;;7371718;19;20031;-73
2023/03/25 13:14:27;;;;;;;2.90;0.80;;;12.30;1.00;;;;;;7369704;19;20376;-72
2023/03/25 13:17:01;;;;;;;1.48;0.52;;;12.40;1.00;;;;;;7372887;19;20021;-74
2023/03/25 13:19:35;;;;;;;3.15;0.70;;;12.50;1.00;;;;;;7368281;19;20014;-73
2023/03/25 13:22:15;;;;;;;3.05;0.40;;;12.40;1.00;;;;;;7371616;19;20412;-73
2023/03/25 13:24:50;;;;;;;3.92;1.02;;;12.60;1.00;;;;;;7368828;19;20018;-73
2023/03/25 13:27:23;;;;;;;1.70;0.70;;;12.70;1.00;;;;;;7390642;19;20019;-74
2023/03/25 13:29:57;;;;;;;2.67;0.93;;;12.80;1.00;;;;;;7367690;19;20010;-73
2023/03/25 13:32:32;;;;;;;1.60;0.80;;;13.00;1.00;;;;;;7370356;19;20074;-73
2023/03/25 13:35:06;;;;;;;1.65;0.60;;;12.70;1.00;;;;;;7367694;19;20089;-73
2023/03/25 13:37:39;;;;;;;1.55;0.70;;;12.50;1.00;;;;;;7369710;19;20010;-73
2023/03/25 13:40:23;;;;;;;6.38;1.40;;;12.90;1.00;;;;;;7368283;19;20020;-73